sensor_id;sensor_type;location;lat;lon;timestamp;P1;durP1;ratioP1;P2;durP2;ratioP2
51636;SDS011;37713;53.254;6.460;2023-09-19T00:00:42;13.65;;;2.05;;
51636;SDS011;37713;53.254;6.460;2023-09-19T00:03:09;13.43;;;1.88;;
51636;SDS011;37713;53.254;6.460;2023-09-19T00:05:37;15.82;;;2.75;;
51636;SDS011;37713;53.254;6.460;2023-09-19T00:08:04;10.10;;;1.90;;
51636;SDS011;37713;53.254;6.460;2023-09-19T00:10:31;11.13;;;1.60;;
51636;SDS011;37713;53.254;6.460;2023-09-19T00:13:00;8.70;;;1.48;;
51636;SDS011;37713;53.254;6.460;2023-09-19T00:15:35;14.13;;;2.30;;
51636;SDS011;37713;53.254;6.460;2023-09-19T00:18:02;10.10;;;1.92;;
51636;SDS011;37713;53.254;6.460;2023-09-19T00:20:31;16.20;;;2.20;;
51636;SDS011;37713;53.254;6.460;2023-09-19T00:23:00;11.15;;;2.00;;
51636;SDS011;37713;53.254;6.460;2023-09-19T00:25:27;12.05;;;2.25;;
51636;SDS011;37713;53.254;6.460;2023-09-19T00:27:54;12.55;;;2.30;;
51636;SDS011;37713;53.254;6.460;2023-09-19T00:30:20;8.52;;;2.00;;
51636;SDS011;37713;53.254;6.460;2023-09-19T00:32:50;10.50;;;1.80;;
51636;SDS011;37713;53.254;6.460;2023-09-19T00:35:22;12.40;;;2.00;;
51636;SDS011;37713;53.254;6.460;2023-09-19T00:37:49;9.77;;;2.13;;
51636;SDS011;37713;53.254;6.460;2023-09-19T00:40:16;8.82;;;2.03;;
51636;SDS011;37713;53.254;6.460;2023-09-19T00:42:42;14.35;;;2.53;;
51636;SDS011;37713;53.254;6.460;2023-09-19T00:45:09;11.90;;;2.17;;
51636;SDS011;37713;53.254;6.460;2023-09-19T00:47:40;11.40;;;2.20;;
51636;SDS011;37713;53.254;6.460;2023-09-19T00:50:09;10.70;;;2.15;;
51636;SDS011;37713;53.254;6.460;2023-09-19T00:52:39;11.32;;;2.45;;
51636;SDS011;37713;53.254;6.460;2023-09-19T00:57:32;11.63;;;1.80;;
51636;SDS011;37713;53.254;6.460;2023-09-19T00:59:59;15.05;;;2.17;;
51636;SDS011;37713;53.254;6.460;2023-09-19T01:02:31;11.75;;;2.25;;
51636;SDS011;37713;53.254;6.460;2023-09-19T01:04:57;10.73;;;2.03;;
51636;SDS011;37713;53.254;6.460;2023-09-19T01:07:23;11.05;;;2.75;;
51636;SDS011;37713;53.254;6.460;2023-09-19T01:09:50;12.52;;;2.17;;
51636;SDS011;37713;53.254;6.460;2023-09-19T01:12:17;9.55;;;2.70;;
51636;SDS011;37713;53.254;6.460;2023-09-19T01:14:53;9.60;;;1.90;;
51636;SDS011;37713;53.254;6.460;2023-09-19T01:17:41;12.43;;;2.20;;
51636;SDS011;37713;53.254;6.460;2023-09-19T01:30:56;8.80;;;2.10;;
51636;SDS011;37713;53.254;6.460;2023-09-19T01:33:25;12.40;;;2.20;;
51636;SDS011;37713;53.254;6.460;2023-09-19T01:35:51;16.88;;;2.53;;
51636;SDS011;37713;53.254;6.460;2023-09-19T01:38:18;10.48;;;2.25;;
51636;SDS011;37713;53.254;6.460;2023-09-19T01:40:48;8.75;;;2.15;;
51636;SDS011;37713;53.254;6.460;2023-09-19T01:43:36;9.50;;;2.20;;
51636;SDS011;37713;53.254;6.460;2023-09-19T01:46:29;12.23;;;2.00;;
51636;SDS011;37713;53.254;6.460;2023-09-19T01:54:12;9.43;;;2.33;;
51636;SDS011;37713;53.254;6.460;2023-09-19T01:56:46;10.23;;;1.95;;
51636;SDS011;37713;53.254;6.460;2023-09-19T01:59:17;12.05;;;1.70;;
51636;SDS011;37713;53.254;6.460;2023-09-19T02:01:52;15.50;;;2.42;;
51636;SDS011;37713;53.254;6.460;2023-09-19T02:04:20;11.00;;;2.30;;
51636;SDS011;37713;53.254;6.460;2023-09-19T02:06:46;12.20;;;2.10;;
51636;SDS011;37713;53.254;6.460;2023-09-19T02:09:14;12.00;;;2.20;;
51636;SDS011;37713;53.254;6.460;2023-09-19T02:11:41;13.30;;;2.45;;
51636;SDS011;37713;53.254;6.460;2023-09-19T02:14:07;13.38;;;1.95;;
51636;SDS011;37713;53.254;6.460;2023-09-19T02:16:34;8.70;;;2.10;;
51636;SDS011;37713;53.254;6.460;2023-09-19T02:19:00;11.02;;;2.03;;
51636;SDS011;37713;53.254;6.460;2023-09-19T02:21:26;10.85;;;1.83;;
51636;SDS011;37713;53.254;6.460;2023-09-19T02:23:55;10.48;;;1.85;;
51636;SDS011;37713;53.254;6.460;2023-09-19T02:26:21;11.10;;;2.00;;
51636;SDS011;37713;53.254;6.460;2023-09-19T02:28:50;10.38;;;2.03;;
51636;SDS011;37713;53.254;6.460;2023-09-19T02:31:15;11.15;;;2.03;;
51636;SDS011;37713;53.254;6.460;2023-09-19T02:33:41;10.80;;;1.88;;
51636;SDS011;37713;53.254;6.460;2023-09-19T02:36:08;11.70;;;2.08;;
51636;SDS011;37713;53.254;6.460;2023-09-19T02:38:35;9.82;;;2.00;;
51636;SDS011;37713;53.254;6.460;2023-09-19T02:41:02;12.43;;;2.15;;
51636;SDS011;37713;53.254;6.460;2023-09-19T02:43:28;15.18;;;2.15;;
51636;SDS011;37713;53.254;6.460;2023-09-19T02:45:54;12.05;;;1.67;;
51636;SDS011;37713;53.254;6.460;2023-09-19T02:48:22;15.00;;;2.03;;
51636;SDS011;37713;53.254;6.460;2023-09-19T02:50:50;9.38;;;1.95;;
51636;SDS011;37713;53.254;6.460;2023-09-19T02:53:17;13.65;;;2.17;;
51636;SDS011;37713;53.254;6.460;2023-09-19T02:55:44;7.72;;;1.63;;
51636;SDS011;37713;53.254;6.460;2023-09-19T02:58:11;9.32;;;2.15;;
51636;SDS011;37713;53.254;6.460;2023-09-19T03:00:39;10.60;;;1.98;;
51636;SDS011;37713;53.254;6.460;2023-09-19T03:03:07;9.73;;;2.03;;
51636;SDS011;37713;53.254;6.460;2023-09-19T03:05:33;9.73;;;2.15;;
51636;SDS011;37713;53.254;6.460;2023-09-19T03:07:59;8.65;;;1.98;;
51636;SDS011;37713;53.254;6.460;2023-09-19T03:10:26;9.40;;;2.00;;
51636;SDS011;37713;53.254;6.460;2023-09-19T03:12:53;10.57;;;2.17;;
51636;SDS011;37713;53.254;6.460;2023-09-19T03:15:19;9.75;;;1.80;;
51636;SDS011;37713;53.254;6.460;2023-09-19T03:17:46;15.32;;;2.67;;
51636;SDS011;37713;53.254;6.460;2023-09-19T03:20:13;7.68;;;2.20;;
51636;SDS011;37713;53.254;6.460;2023-09-19T03:22:42;10.13;;;1.83;;
51636;SDS011;37713;53.254;6.460;2023-09-19T03:25:09;9.75;;;2.20;;
51636;SDS011;37713;53.254;6.460;2023-09-19T03:27:37;11.00;;;2.05;;
51636;SDS011;37713;53.254;6.460;2023-09-19T03:30:03;8.30;;;2.22;;
51636;SDS011;37713;53.254;6.460;2023-09-19T03:32:37;9.20;;;1.80;;
51636;SDS011;37713;53.254;6.460;2023-09-19T03:35:08;11.05;;;1.83;;
51636;SDS011;37713;53.254;6.460;2023-09-19T03:37:34;9.68;;;1.85;;
51636;SDS011;37713;53.254;6.460;2023-09-19T03:40:00;9.02;;;1.88;;
51636;SDS011;37713;53.254;6.460;2023-09-19T03:42:30;11.15;;;1.83;;
51636;SDS011;37713;53.254;6.460;2023-09-19T03:44:56;7.22;;;2.05;;
51636;SDS011;37713;53.254;6.460;2023-09-19T03:47:22;13.30;;;2.15;;
51636;SDS011;37713;53.254;6.460;2023-09-19T03:49:48;8.23;;;1.90;;
51636;SDS011;37713;53.254;6.460;2023-09-19T03:52:14;9.90;;;1.90;;
51636;SDS011;37713;53.254;6.460;2023-09-19T03:54:42;13.45;;;2.65;;
51636;SDS011;37713;53.254;6.460;2023-09-19T03:57:08;8.88;;;1.67;;
51636;SDS011;37713;53.254;6.460;2023-09-19T03:59:34;9.98;;;1.83;;
51636;SDS011;37713;53.254;6.460;2023-09-19T04:02:01;12.80;;;2.45;;
51636;SDS011;37713;53.254;6.460;2023-09-19T04:04:27;8.02;;;1.63;;
51636;SDS011;37713;53.254;6.460;2023-09-19T04:06:54;9.75;;;1.92;;
51636;SDS011;37713;53.254;6.460;2023-09-19T04:09:20;11.32;;;2.08;;
51636;SDS011;37713;53.254;6.460;2023-09-19T04:11:46;9.80;;;1.98;;
51636;SDS011;37713;53.254;6.460;2023-09-19T04:14:12;9.18;;;1.63;;
51636;SDS011;37713;53.254;6.460;2023-09-19T04:16:38;11.82;;;2.15;;
51636;SDS011;37713;53.254;6.460;2023-09-19T04:19:04;10.45;;;2.13;;
51636;SDS011;37713;53.254;6.460;2023-09-19T04:21:30;8.63;;;2.20;;
51636;SDS011;37713;53.254;6.460;2023-09-19T04:23:57;11.27;;;2.38;;
51636;SDS011;37713;53.254;6.460;2023-09-19T04:26:22;13.40;;;1.90;;
51636;SDS011;37713;53.254;6.460;2023-09-19T04:28:48;8.50;;;1.85;;
51636;SDS011;37713;53.254;6.460;2023-09-19T04:31:14;9.10;;;1.77;;
51636;SDS011;37713;53.254;6.460;2023-09-19T04:33:41;11.55;;;2.25;;
51636;SDS011;37713;53.254;6.460;2023-09-19T04:36:08;10.32;;;2.70;;
51636;SDS011;37713;53.254;6.460;2023-09-19T04:38:35;11.25;;;1.88;;
51636;SDS011;37713;53.254;6.460;2023-09-19T04:41:00;9.20;;;1.70;;
51636;SDS011;37713;53.254;6.460;2023-09-19T04:43:26;11.90;;;2.28;;
51636;SDS011;37713;53.254;6.460;2023-09-19T04:45:53;9.35;;;2.05;;
51636;SDS011;37713;53.254;6.460;2023-09-19T04:48:21;10.80;;;2.55;;
51636;SDS011;37713;53.254;6.460;2023-09-19T04:50:50;9.32;;;2.08;;
51636;SDS011;37713;53.254;6.460;2023-09-19T04:53:17;11.70;;;2.35;;
51636;SDS011;37713;53.254;6.460;2023-09-19T04:55:45;13.65;;;2.78;;
51636;SDS011;37713;53.254;6.460;2023-09-19T04:58:15;14.07;;;1.98;;
51636;SDS011;37713;53.254;6.460;2023-09-19T05:00:41;16.60;;;2.25;;
51636;SDS011;37713;53.254;6.460;2023-09-19T05:03:07;13.95;;;2.00;;
51636;SDS011;37713;53.254;6.460;2023-09-19T05:05:34;15.02;;;2.17;;
51636;SDS011;37713;53.254;6.460;2023-09-19T05:08:00;13.73;;;2.22;;
51636;SDS011;37713;53.254;6.460;2023-09-19T05:10:26;11.70;;;2.03;;
51636;SDS011;37713;53.254;6.460;2023-09-19T05:12:55;9.85;;;2.38;;
51636;SDS011;37713;53.254;6.460;2023-09-19T05:15:20;10.77;;;1.80;;
51636;SDS011;37713;53.254;6.460;2023-09-19T05:17:50;9.88;;;2.63;;
51636;SDS011;37713;53.254;6.460;2023-09-19T05:20:17;11.80;;;2.35;;
51636;SDS011;37713;53.254;6.460;2023-09-19T05:23:07;6.57;;;2.20;;
51636;SDS011;37713;53.254;6.460;2023-09-19T05:25:37;10.10;;;2.08;;
51636;SDS011;37713;53.254;6.460;2023-09-19T05:28:09;9.18;;;2.15;;
51636;SDS011;37713;53.254;6.460;2023-09-19T05:30:37;8.63;;;1.85;;
51636;SDS011;37713;53.254;6.460;2023-09-19T05:33:06;12.13;;;2.13;;
51636;SDS011;37713;53.254;6.460;2023-09-19T05:35:33;14.45;;;2.30;;
51636;SDS011;37713;53.254;6.460;2023-09-19T05:37:59;10.25;;;1.80;;
51636;SDS011;37713;53.254;6.460;2023-09-19T05:40:25;9.90;;;1.80;;
51636;SDS011;37713;53.254;6.460;2023-09-19T05:42:52;10.68;;;1.92;;
51636;SDS011;37713;53.254;6.460;2023-09-19T05:45:17;10.63;;;2.00;;
51636;SDS011;37713;53.254;6.460;2023-09-19T05:47:51;12.68;;;2.38;;
51636;SDS011;37713;53.254;6.460;2023-09-19T05:52:52;11.43;;;1.83;;
51636;SDS011;37713;53.254;6.460;2023-09-19T05:55:21;13.02;;;2.13;;
51636;SDS011;37713;53.254;6.460;2023-09-19T05:57:50;11.07;;;2.37;;
51636;SDS011;37713;53.254;6.460;2023-09-19T06:00:17;12.95;;;2.15;;
51636;SDS011;37713;53.254;6.460;2023-09-19T06:02:49;12.23;;;1.88;;
51636;SDS011;37713;53.254;6.460;2023-09-19T06:05:17;12.10;;;2.83;;
51636;SDS011;37713;53.254;6.460;2023-09-19T06:07:43;11.90;;;2.13;;
51636;SDS011;37713;53.254;6.460;2023-09-19T06:10:09;13.32;;;2.22;;
51636;SDS011;37713;53.254;6.460;2023-09-19T06:12:38;11.18;;;2.00;;
51636;SDS011;37713;53.254;6.460;2023-09-19T06:15:05;16.17;;;2.45;;
51636;SDS011;37713;53.254;6.460;2023-09-19T06:17:33;9.95;;;1.83;;
51636;SDS011;37713;53.254;6.460;2023-09-19T06:20:04;13.60;;;1.80;;
51636;SDS011;37713;53.254;6.460;2023-09-19T06:22:38;9.05;;;1.80;;
51636;SDS011;37713;53.254;6.460;2023-09-19T06:25:07;14.85;;;2.63;;
51636;SDS011;37713;53.254;6.460;2023-09-19T06:27:36;13.05;;;2.60;;
51636;SDS011;37713;53.254;6.460;2023-09-19T06:30:07;15.88;;;2.50;;
51636;SDS011;37713;53.254;6.460;2023-09-19T06:32:34;12.18;;;2.40;;
51636;SDS011;37713;53.254;6.460;2023-09-19T06:35:01;14.85;;;2.55;;
51636;SDS011;37713;53.254;6.460;2023-09-19T06:37:28;13.55;;;2.10;;
51636;SDS011;37713;53.254;6.460;2023-09-19T06:39:54;13.48;;;2.33;;
51636;SDS011;37713;53.254;6.460;2023-09-19T06:42:20;12.52;;;2.20;;
51636;SDS011;37713;53.254;6.460;2023-09-19T06:44:48;15.68;;;2.70;;
51636;SDS011;37713;53.254;6.460;2023-09-19T06:47:14;15.57;;;2.72;;
51636;SDS011;37713;53.254;6.460;2023-09-19T06:49:41;12.57;;;2.60;;
51636;SDS011;37713;53.254;6.460;2023-09-19T06:52:10;8.40;;;1.95;;
51636;SDS011;37713;53.254;6.460;2023-09-19T06:54:36;9.85;;;2.13;;
51636;SDS011;37713;53.254;6.460;2023-09-19T06:57:02;11.02;;;2.30;;
51636;SDS011;37713;53.254;6.460;2023-09-19T06:59:28;10.82;;;2.08;;
51636;SDS011;37713;53.254;6.460;2023-09-19T07:01:54;15.57;;;2.08;;
51636;SDS011;37713;53.254;6.460;2023-09-19T07:04:20;10.98;;;2.30;;
51636;SDS011;37713;53.254;6.460;2023-09-19T07:06:49;10.40;;;2.03;;
51636;SDS011;37713;53.254;6.460;2023-09-19T07:09:15;12.88;;;2.38;;
51636;SDS011;37713;53.254;6.460;2023-09-19T07:11:41;10.45;;;2.20;;
51636;SDS011;37713;53.254;6.460;2023-09-19T07:14:07;13.15;;;2.45;;
51636;SDS011;37713;53.254;6.460;2023-09-19T07:16:36;11.38;;;2.13;;
51636;SDS011;37713;53.254;6.460;2023-09-19T07:19:07;11.68;;;2.05;;
51636;SDS011;37713;53.254;6.460;2023-09-19T07:21:33;14.52;;;2.20;;
51636;SDS011;37713;53.254;6.460;2023-09-19T07:24:00;12.38;;;2.45;;
51636;SDS011;37713;53.254;6.460;2023-09-19T07:26:28;9.18;;;2.28;;
51636;SDS011;37713;53.254;6.460;2023-09-19T07:28:54;12.07;;;2.50;;
51636;SDS011;37713;53.254;6.460;2023-09-19T07:31:21;10.40;;;2.08;;
51636;SDS011;37713;53.254;6.460;2023-09-19T07:33:48;17.17;;;2.08;;
51636;SDS011;37713;53.254;6.460;2023-09-19T07:36:14;12.18;;;2.13;;
51636;SDS011;37713;53.254;6.460;2023-09-19T07:38:43;17.55;;;2.55;;
51636;SDS011;37713;53.254;6.460;2023-09-19T07:41:08;14.60;;;2.53;;
51636;SDS011;37713;53.254;6.460;2023-09-19T07:43:35;14.40;;;2.75;;
51636;SDS011;37713;53.254;6.460;2023-09-19T07:46:03;9.00;;;2.67;;
51636;SDS011;37713;53.254;6.460;2023-09-19T07:48:33;11.20;;;2.65;;
51636;SDS011;37713;53.254;6.460;2023-09-19T07:51:03;9.80;;;2.45;;
51636;SDS011;37713;53.254;6.460;2023-09-19T07:53:33;11.07;;;2.13;;
51636;SDS011;37713;53.254;6.460;2023-09-19T07:56:06;12.68;;;2.50;;
51636;SDS011;37713;53.254;6.460;2023-09-19T07:58:33;9.70;;;2.15;;
51636;SDS011;37713;53.254;6.460;2023-09-19T08:01:02;9.25;;;2.47;;
51636;SDS011;37713;53.254;6.460;2023-09-19T08:03:32;12.45;;;2.35;;
51636;SDS011;37713;53.254;6.460;2023-09-19T08:06:02;13.25;;;2.53;;
51636;SDS011;37713;53.254;6.460;2023-09-19T08:08:28;10.73;;;2.70;;
51636;SDS011;37713;53.254;6.460;2023-09-19T08:10:54;16.00;;;2.45;;
51636;SDS011;37713;53.254;6.460;2023-09-19T08:13:24;12.02;;;2.65;;
51636;SDS011;37713;53.254;6.460;2023-09-19T08:15:52;9.77;;;2.47;;
51636;SDS011;37713;53.254;6.460;2023-09-19T08:18:18;9.40;;;1.90;;
51636;SDS011;37713;53.254;6.460;2023-09-19T08:20:53;11.43;;;2.33;;
51636;SDS011;37713;53.254;6.460;2023-09-19T08:23:19;14.20;;;2.50;;
51636;SDS011;37713;53.254;6.460;2023-09-19T08:25:45;12.60;;;2.50;;
51636;SDS011;37713;53.254;6.460;2023-09-19T08:28:12;11.85;;;2.42;;
51636;SDS011;37713;53.254;6.460;2023-09-19T08:30:42;12.77;;;2.22;;
51636;SDS011;37713;53.254;6.460;2023-09-19T08:33:08;14.27;;;3.15;;
51636;SDS011;37713;53.254;6.460;2023-09-19T08:35:35;12.48;;;2.65;;
51636;SDS011;37713;53.254;6.460;2023-09-19T08:38:03;13.77;;;2.63;;
51636;SDS011;37713;53.254;6.460;2023-09-19T08:40:32;11.07;;;2.92;;
51636;SDS011;37713;53.254;6.460;2023-09-19T08:43:04;13.60;;;2.80;;
51636;SDS011;37713;53.254;6.460;2023-09-19T08:45:29;12.93;;;2.80;;
51636;SDS011;37713;53.254;6.460;2023-09-19T08:50:28;11.90;;;2.28;;
51636;SDS011;37713;53.254;6.460;2023-09-19T08:52:56;12.07;;;2.30;;
51636;SDS011;37713;53.254;6.460;2023-09-19T08:57:59;17.38;;;3.00;;
51636;SDS011;37713;53.254;6.460;2023-09-19T09:00:28;12.40;;;2.40;;
51636;SDS011;37713;53.254;6.460;2023-09-19T09:02:56;14.15;;;2.92;;
51636;SDS011;37713;53.254;6.460;2023-09-19T09:05:23;16.38;;;2.63;;
51636;SDS011;37713;53.254;6.460;2023-09-19T09:07:51;10.15;;;2.50;;
51636;SDS011;37713;53.254;6.460;2023-09-19T09:10:20;13.25;;;2.65;;
51636;SDS011;37713;53.254;6.460;2023-09-19T09:12:53;15.15;;;2.92;;
51636;SDS011;37713;53.254;6.460;2023-09-19T09:15:21;12.68;;;2.28;;
51636;SDS011;37713;53.254;6.460;2023-09-19T09:17:48;12.05;;;2.50;;
51636;SDS011;37713;53.254;6.460;2023-09-19T09:20:21;13.70;;;2.55;;
51636;SDS011;37713;53.254;6.460;2023-09-19T09:22:50;14.68;;;2.60;;
51636;SDS011;37713;53.254;6.460;2023-09-19T09:25:18;10.35;;;2.60;;
51636;SDS011;37713;53.254;6.460;2023-09-19T09:27:46;13.65;;;2.85;;
51636;SDS011;37713;53.254;6.460;2023-09-19T09:30:35;11.82;;;2.38;;
51636;SDS011;37713;53.254;6.460;2023-09-19T09:33:09;12.68;;;3.25;;
51636;SDS011;37713;53.254;6.460;2023-09-19T09:35:37;11.02;;;2.72;;
51636;SDS011;37713;53.254;6.460;2023-09-19T09:38:12;14.20;;;3.53;;
51636;SDS011;37713;53.254;6.460;2023-09-19T09:40:48;11.68;;;2.97;;
51636;SDS011;37713;53.254;6.460;2023-09-19T09:43:26;11.48;;;3.08;;
51636;SDS011;37713;53.254;6.460;2023-09-19T09:46:10;15.35;;;2.83;;
51636;SDS011;37713;53.254;6.460;2023-09-19T09:49:04;15.65;;;2.83;;
51636;SDS011;37713;53.254;6.460;2023-09-19T09:51:49;16.73;;;3.15;;
51636;SDS011;37713;53.254;6.460;2023-09-19T09:54:27;11.98;;;2.55;;
51636;SDS011;37713;53.254;6.460;2023-09-19T09:57:06;13.00;;;2.80;;
51636;SDS011;37713;53.254;6.460;2023-09-19T09:59:49;14.65;;;3.65;;
51636;SDS011;37713;53.254;6.460;2023-09-19T10:02:26;16.42;;;2.97;;
51636;SDS011;37713;53.254;6.460;2023-09-19T10:07:47;13.18;;;3.00;;
51636;SDS011;37713;53.254;6.460;2023-09-19T10:10:31;14.07;;;3.15;;
51636;SDS011;37713;53.254;6.460;2023-09-19T10:13:05;15.98;;;4.35;;
51636;SDS011;37713;53.254;6.460;2023-09-19T10:15:32;12.07;;;2.78;;
51636;SDS011;37713;53.254;6.460;2023-09-19T10:18:04;13.70;;;2.83;;
51636;SDS011;37713;53.254;6.460;2023-09-19T10:20:30;12.90;;;2.83;;
51636;SDS011;37713;53.254;6.460;2023-09-19T10:23:00;13.95;;;2.70;;
51636;SDS011;37713;53.254;6.460;2023-09-19T10:25:28;14.85;;;3.05;;
51636;SDS011;37713;53.254;6.460;2023-09-19T10:27:56;16.50;;;3.28;;
51636;SDS011;37713;53.254;6.460;2023-09-19T10:30:27;16.20;;;2.97;;
51636;SDS011;37713;53.254;6.460;2023-09-19T10:33:03;13.05;;;2.75;;
51636;SDS011;37713;53.254;6.460;2023-09-19T10:35:31;15.10;;;3.00;;
51636;SDS011;37713;53.254;6.460;2023-09-19T10:38:01;15.93;;;3.00;;
51636;SDS011;37713;53.254;6.460;2023-09-19T10:40:32;13.77;;;2.53;;
51636;SDS011;37713;53.254;6.460;2023-09-19T10:43:04;11.35;;;2.60;;
51636;SDS011;37713;53.254;6.460;2023-09-19T10:45:31;17.40;;;3.40;;
51636;SDS011;37713;53.254;6.460;2023-09-19T10:47:59;15.60;;;3.20;;
51636;SDS011;37713;53.254;6.460;2023-09-19T10:50:30;14.40;;;3.17;;
51636;SDS011;37713;53.254;6.460;2023-09-19T10:53:00;15.10;;;2.97;;
51636;SDS011;37713;53.254;6.460;2023-09-19T10:55:30;15.13;;;3.67;;
51636;SDS011;37713;53.254;6.460;2023-09-19T10:57:58;14.80;;;2.85;;
51636;SDS011;37713;53.254;6.460;2023-09-19T11:00:25;17.48;;;2.97;;
51636;SDS011;37713;53.254;6.460;2023-09-19T11:05:41;12.38;;;3.20;;
51636;SDS011;37713;53.254;6.460;2023-09-19T11:08:07;14.00;;;3.13;;
51636;SDS011;37713;53.254;6.460;2023-09-19T11:10:47;14.00;;;3.30;;
51636;SDS011;37713;53.254;6.460;2023-09-19T11:13:24;15.27;;;3.40;;
51636;SDS011;37713;53.254;6.460;2023-09-19T11:27:11;17.02;;;3.17;;
51636;SDS011;37713;53.254;6.460;2023-09-19T11:29:39;17.50;;;3.78;;
51636;SDS011;37713;53.254;6.460;2023-09-19T11:32:05;12.45;;;3.20;;
51636;SDS011;37713;53.254;6.460;2023-09-19T11:34:38;14.30;;;3.03;;
51636;SDS011;37713;53.254;6.460;2023-09-19T11:39:39;9.95;;;2.60;;
51636;SDS011;37713;53.254;6.460;2023-09-19T11:48:05;12.77;;;2.85;;
51636;SDS011;37713;53.254;6.460;2023-09-19T11:50:33;16.95;;;3.13;;
51636;SDS011;37713;53.254;6.460;2023-09-19T11:53:01;16.33;;;3.35;;
51636;SDS011;37713;53.254;6.460;2023-09-19T11:55:28;13.98;;;3.28;;
51636;SDS011;37713;53.254;6.460;2023-09-19T11:57:57;17.48;;;3.65;;
51636;SDS011;37713;53.254;6.460;2023-09-19T12:00:24;13.38;;;3.55;;
51636;SDS011;37713;53.254;6.460;2023-09-19T12:02:52;14.20;;;3.15;;
51636;SDS011;37713;53.254;6.460;2023-09-19T12:05:29;13.48;;;3.22;;
51636;SDS011;37713;53.254;6.460;2023-09-19T12:07:57;13.43;;;2.72;;
51636;SDS011;37713;53.254;6.460;2023-09-19T12:10:23;13.65;;;3.40;;
51636;SDS011;37713;53.254;6.460;2023-09-19T12:12:48;15.48;;;3.03;;
51636;SDS011;37713;53.254;6.460;2023-09-19T12:15:14;12.25;;;3.08;;
51636;SDS011;37713;53.254;6.460;2023-09-19T12:17:47;17.83;;;2.83;;
51636;SDS011;37713;53.254;6.460;2023-09-19T12:20:14;15.35;;;3.35;;
51636;SDS011;37713;53.254;6.460;2023-09-19T12:22:43;14.32;;;2.70;;
51636;SDS011;37713;53.254;6.460;2023-09-19T12:25:14;14.50;;;2.65;;
51636;SDS011;37713;53.254;6.460;2023-09-19T12:27:45;16.35;;;3.05;;
51636;SDS011;37713;53.254;6.460;2023-09-19T12:30:21;13.50;;;2.75;;
51636;SDS011;37713;53.254;6.460;2023-09-19T12:32:54;11.13;;;2.60;;
51636;SDS011;37713;53.254;6.460;2023-09-19T12:35:32;12.17;;;2.27;;
51636;SDS011;37713;53.254;6.460;2023-09-19T12:38:04;13.35;;;2.92;;
51636;SDS011;37713;53.254;6.460;2023-09-19T12:40:31;16.50;;;2.78;;
51636;SDS011;37713;53.254;6.460;2023-09-19T12:43:03;12.38;;;2.67;;
51636;SDS011;37713;53.254;6.460;2023-09-19T12:45:31;10.88;;;2.80;;
51636;SDS011;37713;53.254;6.460;2023-09-19T12:51:02;9.80;;;2.10;;
51636;SDS011;37713;53.254;6.460;2023-09-19T12:53:35;14.27;;;2.58;;
51636;SDS011;37713;53.254;6.460;2023-09-19T12:56:10;11.75;;;2.58;;
51636;SDS011;37713;53.254;6.460;2023-09-19T13:01:21;12.77;;;2.70;;
51636;SDS011;37713;53.254;6.460;2023-09-19T13:06:45;10.55;;;2.15;;
51636;SDS011;37713;53.254;6.460;2023-09-19T13:09:18;11.40;;;1.90;;
51636;SDS011;37713;53.254;6.460;2023-09-19T13:11:45;13.65;;;2.20;;
51636;SDS011;37713;53.254;6.460;2023-09-19T13:14:20;12.68;;;2.30;;
51636;SDS011;37713;53.254;6.460;2023-09-19T13:16:54;10.02;;;2.10;;
51636;SDS011;37713;53.254;6.460;2023-09-19T13:19:42;13.70;;;2.08;;
51636;SDS011;37713;53.254;6.460;2023-09-19T13:25:14;11.57;;;2.10;;
51636;SDS011;37713;53.254;6.460;2023-09-19T13:27:47;15.35;;;2.47;;
51636;SDS011;37713;53.254;6.460;2023-09-19T13:30:16;11.15;;;2.30;;
51636;SDS011;37713;53.254;6.460;2023-09-19T13:32:43;8.50;;;2.65;;
51636;SDS011;37713;53.254;6.460;2023-09-19T13:35:09;8.93;;;1.90;;
51636;SDS011;37713;53.254;6.460;2023-09-19T13:37:37;10.15;;;2.63;;
51636;SDS011;37713;53.254;6.460;2023-09-19T13:40:10;8.15;;;1.70;;
51636;SDS011;37713;53.254;6.460;2023-09-19T13:42:37;12.50;;;2.28;;
51636;SDS011;37713;53.254;6.460;2023-09-19T13:45:03;10.90;;;2.03;;
51636;SDS011;37713;53.254;6.460;2023-09-19T13:47:33;10.52;;;1.83;;
51636;SDS011;37713;53.254;6.460;2023-09-19T13:49:59;10.05;;;1.90;;
51636;SDS011;37713;53.254;6.460;2023-09-19T13:52:27;8.43;;;1.80;;
51636;SDS011;37713;53.254;6.460;2023-09-19T13:54:55;9.15;;;2.25;;
51636;SDS011;37713;53.254;6.460;2023-09-19T13:57:25;10.20;;;1.90;;
51636;SDS011;37713;53.254;6.460;2023-09-19T14:02:18;8.45;;;1.85;;
51636;SDS011;37713;53.254;6.460;2023-09-19T14:04:44;9.35;;;1.60;;
51636;SDS011;37713;53.254;6.460;2023-09-19T14:07:10;11.00;;;1.45;;
51636;SDS011;37713;53.254;6.460;2023-09-19T14:09:36;7.97;;;1.80;;
51636;SDS011;37713;53.254;6.460;2023-09-19T14:12:03;8.63;;;1.98;;
51636;SDS011;37713;53.254;6.460;2023-09-19T14:14:28;10.80;;;2.00;;
51636;SDS011;37713;53.254;6.460;2023-09-19T14:16:54;7.88;;;1.80;;
51636;SDS011;37713;53.254;6.460;2023-09-19T14:19:21;9.75;;;1.70;;
51636;SDS011;37713;53.254;6.460;2023-09-19T14:21:46;6.22;;;1.75;;
51636;SDS011;37713;53.254;6.460;2023-09-19T14:24:18;10.35;;;1.90;;
51636;SDS011;37713;53.254;6.460;2023-09-19T14:26:45;8.18;;;1.50;;
51636;SDS011;37713;53.254;6.460;2023-09-19T14:29:11;8.18;;;1.83;;
51636;SDS011;37713;53.254;6.460;2023-09-19T14:31:38;8.48;;;2.03;;
51636;SDS011;37713;53.254;6.460;2023-09-19T14:34:05;10.90;;;1.98;;
51636;SDS011;37713;53.254;6.460;2023-09-19T14:36:31;8.07;;;1.80;;
51636;SDS011;37713;53.254;6.460;2023-09-19T14:38:58;9.60;;;1.92;;
51636;SDS011;37713;53.254;6.460;2023-09-19T14:41:24;11.50;;;2.17;;
51636;SDS011;37713;53.254;6.460;2023-09-19T14:43:54;9.98;;;2.30;;
51636;SDS011;37713;53.254;6.460;2023-09-19T14:46:22;8.63;;;2.45;;
51636;SDS011;37713;53.254;6.460;2023-09-19T14:48:51;9.70;;;1.95;;
51636;SDS011;37713;53.254;6.460;2023-09-19T14:51:17;8.45;;;1.83;;
51636;SDS011;37713;53.254;6.460;2023-09-19T14:53:44;10.52;;;2.15;;
51636;SDS011;37713;53.254;6.460;2023-09-19T14:56:12;7.65;;;2.20;;
51636;SDS011;37713;53.254;6.460;2023-09-19T14:58:41;11.15;;;2.13;;
51636;SDS011;37713;53.254;6.460;2023-09-19T15:01:10;8.13;;;2.13;;
51636;SDS011;37713;53.254;6.460;2023-09-19T15:03:38;8.15;;;2.08;;
51636;SDS011;37713;53.254;6.460;2023-09-19T15:06:15;5.95;;;1.90;;
51636;SDS011;37713;53.254;6.460;2023-09-19T15:08:43;8.90;;;2.22;;
51636;SDS011;37713;53.254;6.460;2023-09-19T15:11:13;7.63;;;1.90;;
51636;SDS011;37713;53.254;6.460;2023-09-19T15:13:42;7.93;;;1.88;;
51636;SDS011;37713;53.254;6.460;2023-09-19T15:16:09;5.90;;;1.65;;
51636;SDS011;37713;53.254;6.460;2023-09-19T15:18:36;7.10;;;1.90;;
51636;SDS011;37713;53.254;6.460;2023-09-19T15:23:32;9.75;;;2.00;;
51636;SDS011;37713;53.254;6.460;2023-09-19T15:26:06;6.25;;;2.25;;
51636;SDS011;37713;53.254;6.460;2023-09-19T15:28:39;10.40;;;2.00;;
51636;SDS011;37713;53.254;6.460;2023-09-19T15:31:06;10.73;;;1.80;;
51636;SDS011;37713;53.254;6.460;2023-09-19T15:33:33;6.72;;;1.90;;
51636;SDS011;37713;53.254;6.460;2023-09-19T15:36:03;7.60;;;2.05;;
51636;SDS011;37713;53.254;6.460;2023-09-19T15:40:57;7.40;;;2.20;;
51636;SDS011;37713;53.254;6.460;2023-09-19T15:43:23;9.07;;;2.10;;
51636;SDS011;37713;53.254;6.460;2023-09-19T15:45:49;9.63;;;2.05;;
51636;SDS011;37713;53.254;6.460;2023-09-19T15:48:15;6.35;;;2.35;;
51636;SDS011;37713;53.254;6.460;2023-09-19T15:50:42;7.68;;;2.25;;
51636;SDS011;37713;53.254;6.460;2023-09-19T15:53:09;8.63;;;2.17;;
51636;SDS011;37713;53.254;6.460;2023-09-19T15:55:40;8.23;;;1.90;;
51636;SDS011;37713;53.254;6.460;2023-09-19T15:58:07;5.95;;;2.08;;